Fairfield, Alabama
Current Conditions -  °F | °C
As of 9:53 AM on Saturday 22 Nov 2014 (Local Time) from KBHM Reporting Station
Clear Clear  
Wind Chill: 14°   Ceiling: Unl
Heat Index: 14°   Visibility: 10mi
Dew Point:   Wind: 12mph
Humidity: 46%   Direction: 120°ESE
Pressure: 30.38"   Gusts: NA
Location:  33.49°N, 86.91°W
Report Text: KBHM 221553Z 12010KT 10SM CLR 14/03 A3038 RMK AO2 SLP286 T01440028
Loading
Personal Weather Stations






























Interactive Weather Map New forecast layout! Learn more

10-Day Weather Forecast

Advertisements
Track Severe Weather on mobile